sensor_id;sensor_type;location;lat;lon;timestamp;temperature;humidity
78731;SHT31;68055;51.978;5.658;2023-09-19T00:00:43;18.4;71.8
78731;SHT31;68055;51.978;5.658;2023-09-19T00:03:13;18.4;71.3
78731;SHT31;68055;51.978;5.658;2023-09-19T00:05:42;18.4;70.6
78731;SHT31;68055;51.978;5.658;2023-09-19T00:08:11;18.4;70.8
78731;SHT31;68055;51.978;5.658;2023-09-19T00:10:41;18.4;70.5
78731;SHT31;68055;51.978;5.658;2023-09-19T00:13:10;18.4;70.8
78731;SHT31;68055;51.978;5.658;2023-09-19T00:15:42;18.4;70.8
78731;SHT31;68055;51.978;5.658;2023-09-19T00:18:15;18.4;71.3
78731;SHT31;68055;51.978;5.658;2023-09-19T00:20:47;18.4;71.1
78731;SHT31;68055;51.978;5.658;2023-09-19T00:23:17;18.4;71.1
78731;SHT31;68055;51.978;5.658;2023-09-19T00:25:46;18.3;71.0
78731;SHT31;68055;51.978;5.658;2023-09-19T00:28:14;18.3;71.3
78731;SHT31;68055;51.978;5.658;2023-09-19T00:30:45;18.3;71.5
78731;SHT31;68055;51.978;5.658;2023-09-19T00:33:16;18.3;71.5
78731;SHT31;68055;51.978;5.658;2023-09-19T00:35:49;18.3;71.5
78731;SHT31;68055;51.978;5.658;2023-09-19T00:38:19;18.4;71.7
78731;SHT31;68055;51.978;5.658;2023-09-19T00:40:51;18.4;71.7
78731;SHT31;68055;51.978;5.658;2023-09-19T00:43:19;18.4;71.6
78731;SHT31;68055;51.978;5.658;2023-09-19T00:45:52;18.4;71.3
78731;SHT31;68055;51.978;5.658;2023-09-19T00:48:22;18.4;71.8
78731;SHT31;68055;51.978;5.658;2023-09-19T00:50:53;18.4;71.5
78731;SHT31;68055;51.978;5.658;2023-09-19T00:53:24;18.4;71.6
78731;SHT31;68055;51.978;5.658;2023-09-19T00:55:54;18.4;71.6
78731;SHT31;68055;51.978;5.658;2023-09-19T00:58:22;18.4;71.3
78731;SHT31;68055;51.978;5.658;2023-09-19T01:00:52;18.4;71.6
78731;SHT31;68055;51.978;5.658;2023-09-19T01:03:22;18.4;71.6
78731;SHT31;68055;51.978;5.658;2023-09-19T01:05:51;18.4;71.8
78731;SHT31;68055;51.978;5.658;2023-09-19T01:08:20;18.4;71.6
78731;SHT31;68055;51.978;5.658;2023-09-19T01:10:54;18.5;71.2
78731;SHT31;68055;51.978;5.658;2023-09-19T01:13:30;18.4;71.1
78731;SHT31;68055;51.978;5.658;2023-09-19T01:16:10;18.4;71.2
78731;SHT31;68055;51.978;5.658;2023-09-19T01:18:51;18.4;71.4
78731;SHT31;68055;51.978;5.658;2023-09-19T01:21:27;18.4;71.2
78731;SHT31;68055;51.978;5.658;2023-09-19T01:25:26;18.4;71.0
78731;SHT31;68055;51.978;5.658;2023-09-19T01:28:29;18.4;70.6
78731;SHT31;68055;51.978;5.658;2023-09-19T01:31:04;18.4;71.0
78731;SHT31;68055;51.978;5.658;2023-09-19T01:33:56;18.4;70.4
78731;SHT31;68055;51.978;5.658;2023-09-19T01:36:33;18.4;70.0
78731;SHT31;68055;51.978;5.658;2023-09-19T01:39:04;18.4;70.0
78731;SHT31;68055;51.978;5.658;2023-09-19T01:41:44;18.4;69.6
78731;SHT31;68055;51.978;5.658;2023-09-19T01:44:19;18.4;69.5
78731;SHT31;68055;51.978;5.658;2023-09-19T01:46:50;18.4;69.0
78731;SHT31;68055;51.978;5.658;2023-09-19T01:49:31;18.4;68.4
78731;SHT31;68055;51.978;5.658;2023-09-19T01:52:09;18.4;68.0
78731;SHT31;68055;51.978;5.658;2023-09-19T01:54:46;18.4;67.6
78731;SHT31;68055;51.978;5.658;2023-09-19T01:57:27;18.3;67.9
78731;SHT31;68055;51.978;5.658;2023-09-19T02:00:01;18.3;67.9
78731;SHT31;68055;51.978;5.658;2023-09-19T02:02:36;18.3;67.7
78731;SHT31;68055;51.978;5.658;2023-09-19T02:05:06;18.2;67.4
78731;SHT31;68055;51.978;5.658;2023-09-19T02:07:35;18.2;67.6
78731;SHT31;68055;51.978;5.658;2023-09-19T02:10:04;18.2;67.5
78731;SHT31;68055;51.978;5.658;2023-09-19T02:12:34;18.1;67.7
78731;SHT31;68055;51.978;5.658;2023-09-19T02:15:03;18.1;67.5
78731;SHT31;68055;51.978;5.658;2023-09-19T02:17:33;18.0;67.6
78731;SHT31;68055;51.978;5.658;2023-09-19T02:20:02;18.0;67.4
78731;SHT31;68055;51.978;5.658;2023-09-19T02:22:37;18.0;66.8
78731;SHT31;68055;51.978;5.658;2023-09-19T02:25:06;17.9;66.7
78731;SHT31;68055;51.978;5.658;2023-09-19T02:27:35;17.9;67.1
78731;SHT31;68055;51.978;5.658;2023-09-19T02:30:06;17.9;66.4
78731;SHT31;68055;51.978;5.658;2023-09-19T02:32:35;17.8;66.2
78731;SHT31;68055;51.978;5.658;2023-09-19T02:35:05;17.8;66.9
78731;SHT31;68055;51.978;5.658;2023-09-19T02:37:37;17.8;66.2
78731;SHT31;68055;51.978;5.658;2023-09-19T02:40:07;17.7;66.1
78731;SHT31;68055;51.978;5.658;2023-09-19T02:42:42;17.7;66.1
78731;SHT31;68055;51.978;5.658;2023-09-19T02:45:13;17.7;65.9
78731;SHT31;68055;51.978;5.658;2023-09-19T02:47:42;17.7;65.8
78731;SHT31;68055;51.978;5.658;2023-09-19T02:50:12;17.6;66.0
78731;SHT31;68055;51.978;5.658;2023-09-19T02:52:44;17.6;66.3
78731;SHT31;68055;51.978;5.658;2023-09-19T02:55:14;17.6;66.2
78731;SHT31;68055;51.978;5.658;2023-09-19T02:57:45;17.5;65.3
78731;SHT31;68055;51.978;5.658;2023-09-19T03:00:14;17.5;65.8
78731;SHT31;68055;51.978;5.658;2023-09-19T03:02:47;17.5;65.5
78731;SHT31;68055;51.978;5.658;2023-09-19T03:05:16;17.5;65.7
78731;SHT31;68055;51.978;5.658;2023-09-19T03:07:46;17.4;65.6
78731;SHT31;68055;51.978;5.658;2023-09-19T03:10:18;17.4;65.5
78731;SHT31;68055;51.978;5.658;2023-09-19T03:12:47;17.4;65.3
78731;SHT31;68055;51.978;5.658;2023-09-19T03:15:16;17.4;65.1
78731;SHT31;68055;51.978;5.658;2023-09-19T03:17:46;17.3;65.2
78731;SHT31;68055;51.978;5.658;2023-09-19T03:20:16;17.3;64.8
78731;SHT31;68055;51.978;5.658;2023-09-19T03:22:49;17.3;64.8
78731;SHT31;68055;51.978;5.658;2023-09-19T03:25:18;17.3;64.7
78731;SHT31;68055;51.978;5.658;2023-09-19T03:27:49;17.2;64.6
78731;SHT31;68055;51.978;5.658;2023-09-19T03:30:18;17.2;64.5
78731;SHT31;68055;51.978;5.658;2023-09-19T03:32:47;17.2;64.7
78731;SHT31;68055;51.978;5.658;2023-09-19T03:35:17;17.2;64.9
78731;SHT31;68055;51.978;5.658;2023-09-19T03:37:46;17.2;64.0
78731;SHT31;68055;51.978;5.658;2023-09-19T03:40:15;17.1;64.7
78731;SHT31;68055;51.978;5.658;2023-09-19T03:42:46;17.1;63.9
78731;SHT31;68055;51.978;5.658;2023-09-19T03:45:15;17.1;64.0
78731;SHT31;68055;51.978;5.658;2023-09-19T03:47:44;17.1;64.1
78731;SHT31;68055;51.978;5.658;2023-09-19T03:50:16;17.1;64.1
78731;SHT31;68055;51.978;5.658;2023-09-19T03:52:45;17.0;64.0
78731;SHT31;68055;51.978;5.658;2023-09-19T03:55:13;17.0;64.0
78731;SHT31;68055;51.978;5.658;2023-09-19T03:57:42;17.0;64.2
78731;SHT31;68055;51.978;5.658;2023-09-19T04:00:16;17.0;63.6
78731;SHT31;68055;51.978;5.658;2023-09-19T04:02:47;17.0;63.4
78731;SHT31;68055;51.978;5.658;2023-09-19T04:05:18;16.9;63.6
78731;SHT31;68055;51.978;5.658;2023-09-19T04:07:47;16.9;64.0
78731;SHT31;68055;51.978;5.658;2023-09-19T04:10:17;16.9;63.7
78731;SHT31;68055;51.978;5.658;2023-09-19T04:12:52;16.9;64.0
78731;SHT31;68055;51.978;5.658;2023-09-19T04:15:22;16.9;63.9
78731;SHT31;68055;51.978;5.658;2023-09-19T04:17:51;16.9;63.4
78731;SHT31;68055;51.978;5.658;2023-09-19T04:20:19;16.9;63.1
78731;SHT31;68055;51.978;5.658;2023-09-19T04:22:49;16.9;63.7
78731;SHT31;68055;51.978;5.658;2023-09-19T04:25:18;16.9;63.9
78731;SHT31;68055;51.978;5.658;2023-09-19T04:27:47;16.9;63.4
78731;SHT31;68055;51.978;5.658;2023-09-19T04:30:16;16.8;63.7
78731;SHT31;68055;51.978;5.658;2023-09-19T04:32:47;16.8;63.5
78731;SHT31;68055;51.978;5.658;2023-09-19T04:35:17;16.8;63.4
78731;SHT31;68055;51.978;5.658;2023-09-19T04:37:45;16.8;63.4
78731;SHT31;68055;51.978;5.658;2023-09-19T04:40:14;16.8;63.8
78731;SHT31;68055;51.978;5.658;2023-09-19T04:42:44;16.8;64.0
78731;SHT31;68055;51.978;5.658;2023-09-19T04:45:13;16.8;63.8
78731;SHT31;68055;51.978;5.658;2023-09-19T04:47:45;16.8;63.4
78731;SHT31;68055;51.978;5.658;2023-09-19T04:50:13;16.8;64.0
78731;SHT31;68055;51.978;5.658;2023-09-19T04:52:43;16.8;63.8
78731;SHT31;68055;51.978;5.658;2023-09-19T04:55:18;16.8;63.7
78731;SHT31;68055;51.978;5.658;2023-09-19T04:57:48;16.7;64.0
78731;SHT31;68055;51.978;5.658;2023-09-19T05:00:19;16.7;64.1
78731;SHT31;68055;51.978;5.658;2023-09-19T05:02:52;16.7;64.1
78731;SHT31;68055;51.978;5.658;2023-09-19T05:05:22;16.7;64.1
78731;SHT31;68055;51.978;5.658;2023-09-19T05:07:54;16.7;63.9
78731;SHT31;68055;51.978;5.658;2023-09-19T05:10:25;16.7;64.1
78731;SHT31;68055;51.978;5.658;2023-09-19T05:12:54;16.7;64.4
78731;SHT31;68055;51.978;5.658;2023-09-19T05:15:23;16.7;64.1
78731;SHT31;68055;51.978;5.658;2023-09-19T05:17:52;16.7;64.6
78731;SHT31;68055;51.978;5.658;2023-09-19T05:20:22;16.7;64.7
78731;SHT31;68055;51.978;5.658;2023-09-19T05:22:59;16.7;64.4
78731;SHT31;68055;51.978;5.658;2023-09-19T05:25:31;16.7;64.5
78731;SHT31;68055;51.978;5.658;2023-09-19T05:28:04;16.7;64.4
78731;SHT31;68055;51.978;5.658;2023-09-19T05:30:33;16.7;64.7
78731;SHT31;68055;51.978;5.658;2023-09-19T05:33:02;16.7;64.8
78731;SHT31;68055;51.978;5.658;2023-09-19T05:35:32;16.8;64.8
78731;SHT31;68055;51.978;5.658;2023-09-19T05:38:03;16.8;64.9
78731;SHT31;68055;51.978;5.658;2023-09-19T05:40:35;16.8;64.8
78731;SHT31;68055;51.978;5.658;2023-09-19T05:43:05;16.8;64.7
78731;SHT31;68055;51.978;5.658;2023-09-19T05:45:34;16.8;64.8
78731;SHT31;68055;51.978;5.658;2023-09-19T05:48:10;16.8;65.0
78731;SHT31;68055;51.978;5.658;2023-09-19T05:50:40;16.8;64.9
78731;SHT31;68055;51.978;5.658;2023-09-19T05:53:09;16.8;64.7
78731;SHT31;68055;51.978;5.658;2023-09-19T05:55:41;16.8;64.9
78731;SHT31;68055;51.978;5.658;2023-09-19T05:58:10;16.8;64.7
78731;SHT31;68055;51.978;5.658;2023-09-19T06:00:41;16.8;64.8
78731;SHT31;68055;51.978;5.658;2023-09-19T06:03:11;16.8;64.8
78731;SHT31;68055;51.978;5.658;2023-09-19T06:05:40;16.8;65.3
78731;SHT31;68055;51.978;5.658;2023-09-19T06:08:09;16.9;65.6
78731;SHT31;68055;51.978;5.658;2023-09-19T06:10:40;16.9;65.9
78731;SHT31;68055;51.978;5.658;2023-09-19T06:13:09;16.9;65.9
78731;SHT31;68055;51.978;5.658;2023-09-19T06:15:38;16.9;65.7
78731;SHT31;68055;51.978;5.658;2023-09-19T06:18:10;16.9;65.8
78731;SHT31;68055;51.978;5.658;2023-09-19T06:20:41;16.9;65.8
78731;SHT31;68055;51.978;5.658;2023-09-19T06:23:10;17.0;66.1
78731;SHT31;68055;51.978;5.658;2023-09-19T06:25:39;17.0;66.1
78731;SHT31;68055;51.978;5.658;2023-09-19T06:28:09;17.0;66.7
78731;SHT31;68055;51.978;5.658;2023-09-19T06:30:39;17.0;66.6
78731;SHT31;68055;51.978;5.658;2023-09-19T06:33:09;17.1;66.6
78731;SHT31;68055;51.978;5.658;2023-09-19T06:35:38;17.1;66.2
78731;SHT31;68055;51.978;5.658;2023-09-19T06:38:08;17.1;66.5
78731;SHT31;68055;51.978;5.658;2023-09-19T06:40:39;17.2;66.7
78731;SHT31;68055;51.978;5.658;2023-09-19T06:43:10;17.2;66.6
78731;SHT31;68055;51.978;5.658;2023-09-19T06:45:38;17.2;66.4
78731;SHT31;68055;51.978;5.658;2023-09-19T06:48:10;17.3;66.6
78731;SHT31;68055;51.978;5.658;2023-09-19T06:50:39;17.3;66.5
78731;SHT31;68055;51.978;5.658;2023-09-19T06:53:10;17.4;66.5
78731;SHT31;68055;51.978;5.658;2023-09-19T06:55:39;17.4;66.4
78731;SHT31;68055;51.978;5.658;2023-09-19T06:58:10;17.4;66.3
78731;SHT31;68055;51.978;5.658;2023-09-19T07:00:38;17.5;66.6
78731;SHT31;68055;51.978;5.658;2023-09-19T07:03:08;17.5;66.3
78731;SHT31;68055;51.978;5.658;2023-09-19T07:05:40;17.6;66.4
78731;SHT31;68055;51.978;5.658;2023-09-19T07:08:10;17.6;66.1
78731;SHT31;68055;51.978;5.658;2023-09-19T07:10:40;17.7;66.2
78731;SHT31;68055;51.978;5.658;2023-09-19T07:13:14;17.7;66.1
78731;SHT31;68055;51.978;5.658;2023-09-19T07:15:44;17.8;66.2
78731;SHT31;68055;51.978;5.658;2023-09-19T07:18:17;17.8;66.0
78731;SHT31;68055;51.978;5.658;2023-09-19T07:20:47;17.9;65.7
78731;SHT31;68055;51.978;5.658;2023-09-19T07:23:18;18.0;65.8
78731;SHT31;68055;51.978;5.658;2023-09-19T07:25:49;18.1;65.5
78731;SHT31;68055;51.978;5.658;2023-09-19T07:28:18;18.1;65.1
78731;SHT31;68055;51.978;5.658;2023-09-19T07:30:49;18.2;65.1
78731;SHT31;68055;51.978;5.658;2023-09-19T07:33:19;18.3;64.5
78731;SHT31;68055;51.978;5.658;2023-09-19T07:35:48;18.4;64.4
78731;SHT31;68055;51.978;5.658;2023-09-19T07:38:18;18.5;64.6
78731;SHT31;68055;51.978;5.658;2023-09-19T07:40:47;18.5;64.0
78731;SHT31;68055;51.978;5.658;2023-09-19T07:43:16;18.6;64.0
78731;SHT31;68055;51.978;5.658;2023-09-19T07:45:45;18.7;63.4
78731;SHT31;68055;51.978;5.658;2023-09-19T07:48:14;18.7;63.8
78731;SHT31;68055;51.978;5.658;2023-09-19T07:50:43;18.8;63.6
78731;SHT31;68055;51.978;5.658;2023-09-19T07:53:12;18.8;63.2
78731;SHT31;68055;51.978;5.658;2023-09-19T07:55:43;18.9;62.9
78731;SHT31;68055;51.978;5.658;2023-09-19T07:58:14;19.0;62.9
78731;SHT31;68055;51.978;5.658;2023-09-19T08:00:42;19.0;62.4
78731;SHT31;68055;51.978;5.658;2023-09-19T08:03:12;19.1;62.5
78731;SHT31;68055;51.978;5.658;2023-09-19T08:05:41;19.2;62.5
78731;SHT31;68055;51.978;5.658;2023-09-19T08:08:11;19.2;62.0
78731;SHT31;68055;51.978;5.658;2023-09-19T08:10:41;19.3;62.1
78731;SHT31;68055;51.978;5.658;2023-09-19T08:13:12;19.4;62.0
78731;SHT31;68055;51.978;5.658;2023-09-19T08:15:44;19.5;61.2
78731;SHT31;68055;51.978;5.658;2023-09-19T08:18:14;19.5;61.9
78731;SHT31;68055;51.978;5.658;2023-09-19T08:20:51;19.6;61.8
78731;SHT31;68055;51.978;5.658;2023-09-19T08:23:20;19.7;61.8
78731;SHT31;68055;51.978;5.658;2023-09-19T08:25:49;19.8;61.7
78731;SHT31;68055;51.978;5.658;2023-09-19T08:28:18;20.0;61.4
78731;SHT31;68055;51.978;5.658;2023-09-19T08:30:50;20.1;60.7
78731;SHT31;68055;51.978;5.658;2023-09-19T08:33:21;20.2;60.7
78731;SHT31;68055;51.978;5.658;2023-09-19T08:35:50;20.3;60.2
78731;SHT31;68055;51.978;5.658;2023-09-19T08:38:18;20.4;60.5
78731;SHT31;68055;51.978;5.658;2023-09-19T08:40:47;20.5;60.6
78731;SHT31;68055;51.978;5.658;2023-09-19T08:43:16;20.6;59.5
78731;SHT31;68055;51.978;5.658;2023-09-19T08:45:45;20.7;59.1
78731;SHT31;68055;51.978;5.658;2023-09-19T08:48:23;20.8;58.5
78731;SHT31;68055;51.978;5.658;2023-09-19T08:50:56;20.9;59.0
78731;SHT31;68055;51.978;5.658;2023-09-19T08:53:39;21.0;58.5
78731;SHT31;68055;51.978;5.658;2023-09-19T08:56:13;21.1;58.3
78731;SHT31;68055;51.978;5.658;2023-09-19T08:58:46;21.2;58.0
78731;SHT31;68055;51.978;5.658;2023-09-19T09:01:18;21.3;57.3
78731;SHT31;68055;51.978;5.658;2023-09-19T09:03:51;21.4;57.3
78731;SHT31;68055;51.978;5.658;2023-09-19T09:06:22;21.5;56.8
78731;SHT31;68055;51.978;5.658;2023-09-19T09:08:52;21.7;56.4
78731;SHT31;68055;51.978;5.658;2023-09-19T09:11:21;21.8;55.6
78731;SHT31;68055;51.978;5.658;2023-09-19T09:13:51;21.9;54.8
78731;SHT31;68055;51.978;5.658;2023-09-19T09:16:20;22.0;55.0
78731;SHT31;68055;51.978;5.658;2023-09-19T09:18:52;22.1;53.7
78731;SHT31;68055;51.978;5.658;2023-09-19T09:21:21;22.1;52.8
78731;SHT31;68055;51.978;5.658;2023-09-19T09:23:50;22.2;52.2
78731;SHT31;68055;51.978;5.658;2023-09-19T09:26:43;22.2;52.1
78731;SHT31;68055;51.978;5.658;2023-09-19T09:29:13;22.2;51.6
78731;SHT31;68055;51.978;5.658;2023-09-19T09:31:45;22.2;52.2
78731;SHT31;68055;51.978;5.658;2023-09-19T09:34:18;22.2;52.8
78731;SHT31;68055;51.978;5.658;2023-09-19T09:36:50;22.2;52.8
78731;SHT31;68055;51.978;5.658;2023-09-19T09:39:30;22.3;52.2
78731;SHT31;68055;51.978;5.658;2023-09-19T09:42:01;22.3;51.3
78731;SHT31;68055;51.978;5.658;2023-09-19T09:44:33;22.3;52.4
78731;SHT31;68055;51.978;5.658;2023-09-19T09:47:02;22.3;52.7
78731;SHT31;68055;51.978;5.658;2023-09-19T09:49:49;22.3;52.5
78731;SHT31;68055;51.978;5.658;2023-09-19T09:52:29;22.3;52.4
78731;SHT31;68055;51.978;5.658;2023-09-19T09:55:02;22.2;52.5
78731;SHT31;68055;51.978;5.658;2023-09-19T09:57:32;22.2;52.6
78731;SHT31;68055;51.978;5.658;2023-09-19T10:00:02;22.2;53.0
78731;SHT31;68055;51.978;5.658;2023-09-19T10:02:46;22.2;53.4
78731;SHT31;68055;51.978;5.658;2023-09-19T10:05:17;22.2;53.9
78731;SHT31;68055;51.978;5.658;2023-09-19T10:07:55;22.2;53.2
78731;SHT31;68055;51.978;5.658;2023-09-19T10:10:32;22.2;54.0
78731;SHT31;68055;51.978;5.658;2023-09-19T10:13:12;22.2;54.2
78731;SHT31;68055;51.978;5.658;2023-09-19T10:15:49;22.2;54.2
78731;SHT31;68055;51.978;5.658;2023-09-19T10:18:23;22.2;53.0
78731;SHT31;68055;51.978;5.658;2023-09-19T10:20:53;22.3;53.4
78731;SHT31;68055;51.978;5.658;2023-09-19T10:23:22;22.3;53.8
78731;SHT31;68055;51.978;5.658;2023-09-19T10:25:53;22.3;53.6
78731;SHT31;68055;51.978;5.658;2023-09-19T10:28:22;22.4;54.0
78731;SHT31;68055;51.978;5.658;2023-09-19T10:30:52;22.4;53.7
78731;SHT31;68055;51.978;5.658;2023-09-19T10:33:22;22.5;53.3
78731;SHT31;68055;51.978;5.658;2023-09-19T10:35:53;22.6;53.8
78731;SHT31;68055;51.978;5.658;2023-09-19T10:38:25;22.6;52.8
78731;SHT31;68055;51.978;5.658;2023-09-19T10:40:56;22.7;52.6
78731;SHT31;68055;51.978;5.658;2023-09-19T10:43:30;22.8;52.4
78731;SHT31;68055;51.978;5.658;2023-09-19T10:46:01;22.8;51.9
78731;SHT31;68055;51.978;5.658;2023-09-19T10:48:32;22.9;51.9
78731;SHT31;68055;51.978;5.658;2023-09-19T10:51:06;22.9;52.3
78731;SHT31;68055;51.978;5.658;2023-09-19T10:53:46;23.0;51.4
78731;SHT31;68055;51.978;5.658;2023-09-19T10:56:23;23.0;51.8
78731;SHT31;68055;51.978;5.658;2023-09-19T10:59:07;23.1;51.0
78731;SHT31;68055;51.978;5.658;2023-09-19T11:01:45;23.1;51.2
78731;SHT31;68055;51.978;5.658;2023-09-19T11:04:28;23.2;50.7
78731;SHT31;68055;51.978;5.658;2023-09-19T11:07:04;23.2;50.8
78731;SHT31;68055;51.978;5.658;2023-09-19T11:09:49;23.2;51.4
78731;SHT31;68055;51.978;5.658;2023-09-19T11:12:50;23.3;51.1
78731;SHT31;68055;51.978;5.658;2023-09-19T11:16:04;23.3;50.5
78731;SHT31;68055;51.978;5.658;2023-09-19T11:18:57;23.3;50.9
78731;SHT31;68055;51.978;5.658;2023-09-19T11:21:55;23.4;50.1
78731;SHT31;68055;51.978;5.658;2023-09-19T11:24:33;23.4;50.8
78731;SHT31;68055;51.978;5.658;2023-09-19T11:27:12;23.5;50.2
78731;SHT31;68055;51.978;5.658;2023-09-19T11:29:44;23.5;49.4
78731;SHT31;68055;51.978;5.658;2023-09-19T11:32:14;23.6;50.3
78731;SHT31;68055;51.978;5.658;2023-09-19T11:34:49;23.6;50.0
78731;SHT31;68055;51.978;5.658;2023-09-19T11:41:46;23.7;48.8
78731;SHT31;68055;51.978;5.658;2023-09-19T11:44:35;23.7;49.6
78731;SHT31;68055;51.978;5.658;2023-09-19T11:47:05;23.7;48.5
78731;SHT31;68055;51.978;5.658;2023-09-19T11:49:40;23.7;48.3
78731;SHT31;68055;51.978;5.658;2023-09-19T11:52:10;23.7;47.7
78731;SHT31;68055;51.978;5.658;2023-09-19T11:54:41;23.8;48.0
78731;SHT31;68055;51.978;5.658;2023-09-19T11:57:22;23.8;48.6
78731;SHT31;68055;51.978;5.658;2023-09-19T11:59:51;23.8;48.2
78731;SHT31;68055;51.978;5.658;2023-09-19T12:02:31;23.8;48.3
78731;SHT31;68055;51.978;5.658;2023-09-19T12:05:03;23.8;48.5
78731;SHT31;68055;51.978;5.658;2023-09-19T12:07:43;23.9;48.3
78731;SHT31;68055;51.978;5.658;2023-09-19T12:10:15;23.9;48.3
78731;SHT31;68055;51.978;5.658;2023-09-19T12:12:49;23.9;48.0
78731;SHT31;68055;51.978;5.658;2023-09-19T12:15:25;23.9;48.0
78731;SHT31;68055;51.978;5.658;2023-09-19T12:17:54;23.9;48.2
78731;SHT31;68055;51.978;5.658;2023-09-19T12:20:23;23.9;48.2
78731;SHT31;68055;51.978;5.658;2023-09-19T12:22:52;23.9;48.2
78731;SHT31;68055;51.978;5.658;2023-09-19T12:25:21;23.9;48.0
78731;SHT31;68055;51.978;5.658;2023-09-19T12:27:51;23.9;47.2
78731;SHT31;68055;51.978;5.658;2023-09-19T12:30:28;23.9;47.6
78731;SHT31;68055;51.978;5.658;2023-09-19T12:33:00;23.8;47.7
78731;SHT31;68055;51.978;5.658;2023-09-19T12:35:31;23.8;47.8
78731;SHT31;68055;51.978;5.658;2023-09-19T12:38:01;23.8;47.6
78731;SHT31;68055;51.978;5.658;2023-09-19T12:40:30;23.7;47.5
78731;SHT31;68055;51.978;5.658;2023-09-19T12:43:00;23.7;48.1
78731;SHT31;68055;51.978;5.658;2023-09-19T12:45:31;23.7;48.2
78731;SHT31;68055;51.978;5.658;2023-09-19T12:48:19;23.6;48.3
78731;SHT31;68055;51.978;5.658;2023-09-19T12:51:05;23.6;48.7
78731;SHT31;68055;51.978;5.658;2023-09-19T12:53:38;23.6;48.5
78731;SHT31;68055;51.978;5.658;2023-09-19T12:56:09;23.6;48.5
78731;SHT31;68055;51.978;5.658;2023-09-19T12:58:56;23.5;48.7
78731;SHT31;68055;51.978;5.658;2023-09-19T13:01:27;23.5;49.1
78731;SHT31;68055;51.978;5.658;2023-09-19T13:04:16;23.5;49.3
78731;SHT31;68055;51.978;5.658;2023-09-19T13:06:52;23.4;49.2
78731;SHT31;68055;51.978;5.658;2023-09-19T13:09:23;23.4;49.8
78731;SHT31;68055;51.978;5.658;2023-09-19T13:11:57;23.4;50.0
78731;SHT31;68055;51.978;5.658;2023-09-19T13:14:29;23.4;49.9
78731;SHT31;68055;51.978;5.658;2023-09-19T13:17:05;23.4;49.7
78731;SHT31;68055;51.978;5.658;2023-09-19T13:19:40;23.3;49.8
78731;SHT31;68055;51.978;5.658;2023-09-19T13:22:40;23.3;49.8
78731;SHT31;68055;51.978;5.658;2023-09-19T13:25:14;23.3;50.2
78731;SHT31;68055;51.978;5.658;2023-09-19T13:27:46;23.3;50.1
78731;SHT31;68055;51.978;5.658;2023-09-19T13:30:18;23.2;50.5
78731;SHT31;68055;51.978;5.658;2023-09-19T13:32:48;23.2;50.3
78731;SHT31;68055;51.978;5.658;2023-09-19T13:35:16;23.1;50.3
78731;SHT31;68055;51.978;5.658;2023-09-19T13:37:47;23.1;50.5
78731;SHT31;68055;51.978;5.658;2023-09-19T13:40:18;23.1;50.6
78731;SHT31;68055;51.978;5.658;2023-09-19T13:42:46;23.0;50.8
78731;SHT31;68055;51.978;5.658;2023-09-19T13:45:20;23.0;51.2
78731;SHT31;68055;51.978;5.658;2023-09-19T13:47:51;23.0;51.2
78731;SHT31;68055;51.978;5.658;2023-09-19T13:50:20;22.9;51.0
78731;SHT31;68055;51.978;5.658;2023-09-19T13:52:50;22.9;51.7
78731;SHT31;68055;51.978;5.658;2023-09-19T13:55:20;22.9;51.5
78731;SHT31;68055;51.978;5.658;2023-09-19T13:57:49;22.9;51.0
78731;SHT31;68055;51.978;5.658;2023-09-19T14:00:21;23.0;52.0
78731;SHT31;68055;51.978;5.658;2023-09-19T14:02:49;23.0;51.8
78731;SHT31;68055;51.978;5.658;2023-09-19T14:05:18;23.0;51.5
78731;SHT31;68055;51.978;5.658;2023-09-19T14:07:47;23.1;52.0
78731;SHT31;68055;51.978;5.658;2023-09-19T14:10:17;23.1;51.7
78731;SHT31;68055;51.978;5.658;2023-09-19T14:12:46;23.1;51.3
78731;SHT31;68055;51.978;5.658;2023-09-19T14:15:15;23.1;51.4
78731;SHT31;68055;51.978;5.658;2023-09-19T14:17:43;23.2;50.8
78731;SHT31;68055;51.978;5.658;2023-09-19T14:20:13;23.2;50.7
78731;SHT31;68055;51.978;5.658;2023-09-19T14:22:42;23.2;51.4
78731;SHT31;68055;51.978;5.658;2023-09-19T14:25:11;23.2;51.3
78731;SHT31;68055;51.978;5.658;2023-09-19T14:27:40;23.3;51.2
78731;SHT31;68055;51.978;5.658;2023-09-19T14:30:10;23.3;51.4
78731;SHT31;68055;51.978;5.658;2023-09-19T14:32:39;23.3;51.1
78731;SHT31;68055;51.978;5.658;2023-09-19T14:35:09;23.3;51.0
78731;SHT31;68055;51.978;5.658;2023-09-19T14:37:40;23.3;50.8
78731;SHT31;68055;51.978;5.658;2023-09-19T14:40:09;23.3;50.4
78731;SHT31;68055;51.978;5.658;2023-09-19T14:42:40;23.3;50.5
78731;SHT31;68055;51.978;5.658;2023-09-19T14:45:11;23.3;50.6
78731;SHT31;68055;51.978;5.658;2023-09-19T14:47:43;23.2;50.8
78731;SHT31;68055;51.978;5.658;2023-09-19T14:50:14;23.2;50.5
78731;SHT31;68055;51.978;5.658;2023-09-19T14:52:43;23.2;50.7
78731;SHT31;68055;51.978;5.658;2023-09-19T14:55:11;23.2;50.8
78731;SHT31;68055;51.978;5.658;2023-09-19T14:57:40;23.2;50.9
78731;SHT31;68055;51.978;5.658;2023-09-19T15:00:11;23.1;51.0
78731;SHT31;68055;51.978;5.658;2023-09-19T15:02:40;23.1;51.0
78731;SHT31;68055;51.978;5.658;2023-09-19T15:05:11;23.1;51.6
78731;SHT31;68055;51.978;5.658;2023-09-19T15:07:42;23.1;51.4
78731;SHT31;68055;51.978;5.658;2023-09-19T15:10:11;23.0;51.4
78731;SHT31;68055;51.978;5.658;2023-09-19T15:12:40;23.0;51.9
78731;SHT31;68055;51.978;5.658;2023-09-19T15:15:09;23.0;51.5
78731;SHT31;68055;51.978;5.658;2023-09-19T15:17:40;23.0;51.7
78731;SHT31;68055;51.978;5.658;2023-09-19T15:20:09;23.0;52.2
78731;SHT31;68055;51.978;5.658;2023-09-19T15:22:40;23.0;52.3
78731;SHT31;68055;51.978;5.658;2023-09-19T15:25:10;22.9;52.2
78731;SHT31;68055;51.978;5.658;2023-09-19T15:27:39;22.9;52.1
78731;SHT31;68055;51.978;5.658;2023-09-19T15:30:09;22.9;51.9
78731;SHT31;68055;51.978;5.658;2023-09-19T15:32:38;22.9;51.9
78731;SHT31;68055;51.978;5.658;2023-09-19T15:35:08;22.9;52.0
78731;SHT31;68055;51.978;5.658;2023-09-19T15:37:40;22.8;52.2
78731;SHT31;68055;51.978;5.658;2023-09-19T15:40:09;22.8;52.0
78731;SHT31;68055;51.978;5.658;2023-09-19T15:42:40;22.8;52.4
78731;SHT31;68055;51.978;5.658;2023-09-19T15:45:09;22.8;52.6
78731;SHT31;68055;51.978;5.658;2023-09-19T15:47:38;22.8;52.4
78731;SHT31;68055;51.978;5.658;2023-09-19T15:50:11;22.7;52.1
78731;SHT31;68055;51.978;5.658;2023-09-19T15:52:41;22.7;52.2
78731;SHT31;68055;51.978;5.658;2023-09-19T15:55:11;22.7;52.4
78731;SHT31;68055;51.978;5.658;2023-09-19T15:57:41;22.7;52.7
78731;SHT31;68055;51.978;5.658;2023-09-19T16:00:12;22.7;52.4
78731;SHT31;68055;51.978;5.658;2023-09-19T16:02:45;22.7;52.4
78731;SHT31;68055;51.978;5.658;2023-09-19T16:05:17;22.6;52.5
78731;SHT31;68055;51.978;5.658;2023-09-19T16:07:45;22.6;52.8
78731;SHT31;68055;51.978;5.658;2023-09-19T16:10:14;22.6;53.3
78731;SHT31;68055;51.978;5.658;2023-09-19T16:12:42;22.6;53.6
78731;SHT31;68055;51.978;5.658;2023-09-19T16:15:11;22.5;54.0
78731;SHT31;68055;51.978;5.658;2023-09-19T16:17:41;22.5;54.1
78731;SHT31;68055;51.978;5.658;2023-09-19T16:20:10;22.5;54.1
78731;SHT31;68055;51.978;5.658;2023-09-19T16:22:39;22.4;54.3
78731;SHT31;68055;51.978;5.658;2023-09-19T16:25:09;22.4;54.2
78731;SHT31;68055;51.978;5.658;2023-09-19T16:27:40;22.4;54.2
78731;SHT31;68055;51.978;5.658;2023-09-19T16:30:09;22.3;53.9
78731;SHT31;68055;51.978;5.658;2023-09-19T16:32:40;22.3;54.1
78731;SHT31;68055;51.978;5.658;2023-09-19T16:35:09;22.3;54.0
78731;SHT31;68055;51.978;5.658;2023-09-19T16:37:39;22.2;54.1